»·PEaware :: N512HM KEUG-KOLM

N512HM :: KEUG-KOLM

FLIGHT INFORMATION

Flight Status: Arrived
Operator: Privately registered:
United States
More flights under this callsign
Pilot: Steven M. (455)
Aircraft: SOCATA TBM-900
(TBM9)
More flights by this aircraft type
Origin: KEUG Mahlon Sweet
United States
Destination: KOLM Olympia
United States
More flights between these airports :: More routes between these airports
Route: CVO
File this flight plan on PilotEdge
Remarks:
Altitude:
(Current/Filed)
24,000ft
Speed:
(Current/Filed)
307kts
Departed: 13-Nov-18 09:15 AM
Arrived: 13-Nov-18 10:07 AM
Distance/Time
Traveled:
172nm/0:52
Distance/Time
To Go:
Arrived

Flight Plot

Page will automatically refresh every two minutes.

Flight plan parsing failed; only flown route is shown


Map Options




Map Legend


Flown Route
Filed Route
Departure Airport
Arrival Airport
Navaid (VOR, NDB)
Fix

Horizontal Profiles

Position Reports

Time Latitude Longitude Heading Altitude Ground
Speed
13-Nov-18 08:58 44.117882 -123.215233 206 363ft 0kts
13-Nov-18 08:59 44.117882 -123.215233 206 363ft 0kts
13-Nov-18 09:00 44.117882 -123.215233 206 363ft 0kts
13-Nov-18 09:01 44.117882 -123.215233 206 363ft 0kts
13-Nov-18 09:02 44.117882 -123.215233 206 363ft 0kts
13-Nov-18 09:03 44.117882 -123.215233 206 363ft 0kts
13-Nov-18 09:04 44.117882 -123.215233 206 363ft 0kts
13-Nov-18 09:05 44.117882 -123.215233 206 363ft 0kts
13-Nov-18 09:06 44.117882 -123.215233 206 363ft 0kts
13-Nov-18 09:07 44.117882 -123.215233 206 363ft 0kts
13-Nov-18 09:08 44.117882 -123.215233 206 363ft 0kts
13-Nov-18 09:09 44.117882 -123.215233 206 363ft 0kts
13-Nov-18 09:10 44.117882 -123.215233 206 363ft 0kts
13-Nov-18 09:11 44.117882 -123.215233 206 363ft 0kts
13-Nov-18 09:12 44.117882 -123.215233 206 363ft 0kts
13-Nov-18 09:13 44.117882 -123.215233 206 363ft 0kts
13-Nov-18 09:14 44.117788 -123.215344 245 363ft 3kts
13-Nov-18 09:15 44.117220 -123.216945 182 363ft 9kts
13-Nov-18 09:16 44.114229 -123.216890 180 363ft 11kts
13-Nov-18 09:17 44.113687 -123.217928 271 363ft 8kts
13-Nov-18 09:18 44.130397 -123.219386 358 828ft 130kts
13-Nov-18 09:19 44.167161 -123.220801 359 3158ft 136kts
13-Nov-18 09:20 44.205512 -123.225099 351 5301ft 141kts
13-Nov-18 09:21 44.244333 -123.233884 350 7291ft 146kts
13-Nov-18 09:22 44.283223 -123.243122 355 9910ft 130kts
13-Nov-18 09:23 44.315030 -123.249888 338 12288ft 118kts
13-Nov-18 09:24 44.348999 -123.258115 336 14242ft 127kts
13-Nov-18 09:25 44.384032 -123.266415 334 16153ft 132kts
13-Nov-18 09:26 44.420683 -123.275051 333 17867ft 137kts
13-Nov-18 09:27 44.458931 -123.284092 333 19466ft 143kts
13-Nov-18 09:28 44.498696 -123.293053 342 20957ft 157kts
13-Nov-18 09:29 44.544301 -123.286796 347 22552ft 169kts
13-Nov-18 09:30 44.591591 -123.279712 347 24137ft 175kts
13-Nov-18 09:31 44.645763 -123.271707 351 24506ft 229kts
13-Nov-18 09:32 44.715437 -123.260949 353 24487ft 268kts
13-Nov-18 09:33 44.764723 -123.253364 353 24480ft 278kts
13-Nov-18 09:34 44.842383 -123.241441 354 24478ft 283kts
13-Nov-18 09:35 44.920876 -123.229373 354 24476ft 285kts
13-Nov-18 09:36 44.999558 -123.217257 354 24476ft 285kts
13-Nov-18 09:37 45.078248 -123.205116 354 24471ft 285kts
13-Nov-18 09:38 45.155668 -123.193107 354 24479ft 285kts
13-Nov-18 09:39 45.234181 -123.180929 354 24480ft 285kts
13-Nov-18 09:40 45.313158 -123.168633 354 24479ft 285kts
13-Nov-18 09:41 45.391974 -123.156330 354 24480ft 285kts
13-Nov-18 09:42 45.469713 -123.144160 354 24479ft 285kts
13-Nov-18 09:43 45.545568 -123.132248 354 24479ft 285kts
13-Nov-18 09:44 45.624004 -123.119975 357 24478ft 285kts
13-Nov-18 09:45 45.702391 -123.107545 357 24478ft 285kts
13-Nov-18 09:46 45.781320 -123.095049 357 24478ft 285kts
13-Nov-18 09:47 45.862637 -123.082183 358 23307ft 308kts
13-Nov-18 09:48 45.948726 -123.068447 358 21631ft 316kts
13-Nov-18 09:49 46.033885 -123.054731 358 20335ft 309kts
13-Nov-18 09:50 46.114723 -123.041875 359 18609ft 307kts
13-Nov-18 09:51 46.191240 -123.029587 359 17334ft 301kts
13-Nov-18 09:52 46.273457 -123.016344 0 15968ft 300kts
13-Nov-18 09:53 46.355805 -123.003052 0 14560ft 296kts
13-Nov-18 09:54 46.436658 -122.989907 1 13022ft 295kts
13-Nov-18 09:55 46.517222 -122.976836 2 11025ft 290kts
13-Nov-18 09:56 46.596325 -122.963889 4 9148ft 280kts
13-Nov-18 09:57 46.669038 -122.952091 6 7542ft 253kts
13-Nov-18 09:58 46.736513 -122.940943 6 5944ft 243kts
13-Nov-18 09:59 46.802113 -122.934007 5 4360ft 237kts
13-Nov-18 10:00 46.862746 -122.923920 7 4000ft 225kts
13-Nov-18 10:01 46.925561 -122.912086 8 3997ft 232kts
13-Nov-18 10:02 46.988993 -122.895729 9 3731ft 242kts
13-Nov-18 10:03 47.053326 -122.883959 8 2737ft 229kts
13-Nov-18 10:04 47.105974 -122.908260 322 2435ft 200kts
13-Nov-18 10:05 47.134490 -122.876953 127 2440ft 191kts
13-Nov-18 10:06 47.086598 -122.870693 190 2389ft 183kts
13-Nov-18 10:07 47.038945 -122.884722 188 2354ft 172kts
13-Nov-18 10:08 47.003285 -122.894702 192 1098ft 100kts
13-Nov-18 10:09 46.977287 -122.902115 191 252ft 87kts
13-Nov-18 10:10 46.967264 -122.903767 84 203ft 12kts
13-Nov-18 10:11 46.967254 -122.903081 94 203ft 0kts
13-Nov-18 10:12 46.967784 -122.900896 11 203ft 9kts
13-Nov-18 10:13 46.970907 -122.898923 47 204ft 14kts
13-Nov-18 10:14 46.973115 -122.896805 321 204ft 5kts
13-Nov-18 10:15 46.974891 -122.898809 357 199ft 3kts
13-Nov-18 10:16 46.975734 -122.898798 281 198ft 0kts
13-Nov-18 10:17 46.975734 -122.898798 281 198ft 0kts
13-Nov-18 10:18 46.975734 -122.898798 281 198ft 0kts
13-Nov-18 10:19 46.975734 -122.898798 281 198ft 0kts
13-Nov-18 10:20 46.975734 -122.898798 281 198ft 0kts
13-Nov-18 10:21 46.975734 -122.898798 281 198ft 0kts
13-Nov-18 10:22 46.975734 -122.898798 281 198ft 0kts
13-Nov-18 10:23 46.975734 -122.898798 281 198ft 0kts
13-Nov-18 10:24 46.975734 -122.898798 281 198ft 0kts
13-Nov-18 10:25 46.975734 -122.898798 281 198ft 0kts

Navigation Log

Ident Type
Flight plan parsing failed, navigation log unavailable